Time;durP1;ratioP1;P1;durP2;ratioP2;P2;SDS_P1;SDS_P2;PMS_P1;PMS_P2;Temp;Humidity;BMP_temperature;BMP_pressure;BME280_temperature;BME280_humidity;BME280_pressure;Samples;Min_cycle;Max_cycle;Signal;HPM_P1;HPM_P2
2023/03/21 00:01:25;;;;;;;8.70;4.43;;;;;;;;;;5016504;28;20049;-76
2023/03/21 00:03:51;;;;;;;12.00;4.83;;;;;;;;;;5028178;28;20029;-75
2023/03/21 00:06:17;;;;;;;14.07;4.60;;;;;;;;;;5003248;28;20033;-76
2023/03/21 00:08:43;;;;;;;11.47;4.50;;;;;;;;;;5028010;28;20120;-76
2023/03/21 00:11:12;;;;;;;9.87;3.93;;;;;;;;;;5013993;28;20335;-75
2023/03/21 00:13:41;;;;;;;11.97;4.50;;;;;;;;;;5026501;28;20038;-76
2023/03/21 00:16:17;;;;;;;7.73;4.43;;;;;;;;;;5020441;28;20022;-76
2023/03/21 00:18:45;;;;;;;8.80;4.30;;;;;;;;;;5024997;28;20034;-76
2023/03/21 00:21:14;;;;;;;8.93;4.30;;;;;;;;;;5015873;28;20064;-75
2023/03/21 00:23:40;;;;;;;13.30;4.57;;;;;;;;;;5026401;28;20057;-75
2023/03/21 00:26:08;;;;;;;13.43;4.90;;;;;;;;;;5034753;28;20079;-75
2023/03/21 00:28:35;;;;;;;10.83;4.47;;;;;;;;;;5033098;28;20060;-76
2023/03/21 00:31:01;;;;;;;11.60;3.90;;;;;;;;;;5019838;28;20029;-76
2023/03/21 00:33:27;;;;;;;14.90;4.67;;;;;;;;;;5019170;28;20112;-76
2023/03/21 00:35:53;;;;;;;14.13;5.07;;;;;;;;;;5019452;28;20109;-75
2023/03/21 00:38:20;;;;;;;13.43;5.87;;;;;;;;;;5015554;28;20048;-76
2023/03/21 00:40:46;;;;;;;10.20;4.37;;;;;;;;;;5019710;28;20025;-76
2023/03/21 00:43:16;;;;;;;12.33;5.03;;;;;;;;;;5022953;28;20114;-76
2023/03/21 00:45:42;;;;;;;9.33;4.30;;;;;;;;;;5015860;28;20446;-76
2023/03/21 00:48:08;;;;;;;10.00;4.40;;;;;;;;;;5031874;28;20018;-76
2023/03/21 00:50:35;;;;;;;11.27;4.73;;;;;;;;;;5013933;28;20025;-75
2023/03/21 00:53:01;;;;;;;9.63;4.80;;;;;;;;;;5013976;28;20041;-76
2023/03/21 00:55:27;;;;;;;11.17;4.87;;;;;;;;;;5013625;28;20026;-74
2023/03/21 00:57:53;;;;;;;9.77;4.40;;;;;;;;;;5028759;28;20871;-75
2023/03/21 01:00:19;;;;;;;15.90;5.20;;;;;;;;;;5014068;28;20037;-76
2023/03/21 01:02:55;;;;;;;12.07;5.47;;;;;;;;;;5016354;28;20021;-75
2023/03/21 01:08:11;;;;;;;12.80;5.13;;;;;;;;;;5026339;28;20100;-75
2023/03/21 01:10:39;;;;;;;11.80;4.50;;;;;;;;;;5023843;28;20057;-76
2023/03/21 01:13:05;;;;;;;12.37;4.93;;;;;;;;;;5008676;28;20040;-77
2023/03/21 01:15:31;;;;;;;9.77;5.10;;;;;;;;;;5025558;28;20021;-75
2023/03/21 01:17:56;;;;;;;12.30;4.37;;;;;;;;;;5012662;28;20113;-75
2023/03/21 01:20:22;;;;;;;9.57;4.60;;;;;;;;;;5008129;28;20025;-75
2023/03/21 01:22:49;;;;;;;11.77;5.60;;;;;;;;;;5015200;28;20069;-76
2023/03/21 01:25:15;;;;;;;14.47;5.23;;;;;;;;;;5011949;28;20037;-76
2023/03/21 01:27:41;;;;;;;12.50;5.17;;;;;;;;;;5011794;28;20033;-75
2023/03/21 01:30:07;;;;;;;18.33;5.57;;;;;;;;;;5012347;28;20060;-76
2023/03/21 01:32:35;;;;;;;11.97;5.37;;;;;;;;;;5024472;28;20065;-76
2023/03/21 01:35:01;;;;;;;14.93;5.60;;;;;;;;;;5026927;28;20040;-75
2023/03/21 01:37:27;;;;;;;16.70;5.73;;;;;;;;;;5024221;28;20030;-76
2023/03/21 01:39:54;;;;;;;9.07;5.10;;;;;;;;;;5026089;28;20060;-75
2023/03/21 01:42:22;;;;;;;12.73;6.03;;;;;;;;;;5026275;28;20055;-76
2023/03/21 01:44:56;;;;;;;11.27;5.13;;;;;;;;;;5012405;28;20029;-75
2023/03/21 01:47:22;;;;;;;12.23;5.67;;;;;;;;;;5024107;28;20076;-75
2023/03/21 01:49:53;;;;;;;14.43;5.50;;;;;;;;;;5007498;28;20060;-76
2023/03/21 01:52:31;;;;;;;15.77;6.13;;;;;;;;;;5028079;28;20121;-74
2023/03/21 01:54:58;;;;;;;15.27;5.37;;;;;;;;;;5009297;28;20025;-76
2023/03/21 01:57:31;;;;;;;11.67;6.17;;;;;;;;;;5027064;28;20064;-75
2023/03/21 02:00:00;;;;;;;13.20;5.67;;;;;;;;;;5012977;28;20026;-75
2023/03/21 02:02:30;;;;;;;13.97;6.43;;;;;;;;;;5012588;28;20037;-75
2023/03/21 02:04:58;;;;;;;14.53;6.07;;;;;;;;;;5010540;28;20073;-76
2023/03/21 02:07:28;;;;;;;21.67;6.57;;;;;;;;;;5026567;28;20117;-75
2023/03/21 02:09:54;;;;;;;16.43;6.30;;;;;;;;;;5012672;28;20347;-75
2023/03/21 02:12:20;;;;;;;12.73;5.90;;;;;;;;;;5023472;28;20033;-75
2023/03/21 02:14:48;;;;;;;15.20;6.60;;;;;;;;;;5023770;28;20040;-76
2023/03/21 02:17:14;;;;;;;12.90;5.80;;;;;;;;;;5027898;28;20626;-75
2023/03/21 02:19:43;;;;;;;15.40;6.33;;;;;;;;;;5025066;28;20245;-75
2023/03/21 02:22:09;;;;;;;17.47;6.80;;;;;;;;;;5023276;28;20041;-75
2023/03/21 02:24:56;;;;;;;13.60;6.73;;;;;;;;;;5008947;28;20033;-76
2023/03/21 02:27:24;;;;;;;16.87;6.70;;;;;;;;;;5010110;28;20792;-75
2023/03/21 02:29:59;;;;;;;13.37;6.57;;;;;;;;;;5026613;28;20029;-75
2023/03/21 02:32:25;;;;;;;15.50;6.17;;;;;;;;;;5023886;28;20036;-75
2023/03/21 02:35:03;;;;;;;17.37;6.40;;;;;;;;;;5024876;28;20030;-75
2023/03/21 02:37:29;;;;;;;15.70;7.53;;;;;;;;;;5006481;28;20029;-75
2023/03/21 02:40:14;;;;;;;15.30;6.97;;;;;;;;;;5022903;28;20086;-75
2023/03/21 02:42:57;;;;;;;14.97;6.70;;;;;;;;;;5024588;28;20053;-75
2023/03/21 02:45:25;;;;;;;19.93;7.73;;;;;;;;;;5008209;28;20061;-75
2023/03/21 02:48:10;;;;;;;18.07;6.90;;;;;;;;;;5024527;28;20033;-75
2023/03/21 02:50:42;;;;;;;13.53;6.07;;;;;;;;;;5023768;28;20041;-77
2023/03/21 02:53:10;;;;;;;13.65;6.47;;;;;;;;;;5034181;28;20061;-75
2023/03/21 02:55:37;;;;;;;17.13;7.67;;;;;;;;;;5033088;28;20034;-76
2023/03/21 02:58:04;;;;;;;26.30;8.83;;;;;;;;;;5027380;28;20065;-76
2023/03/21 03:00:32;;;;;;;14.33;7.13;;;;;;;;;;5026616;28;20435;-76
2023/03/21 03:02:58;;;;;;;15.97;6.60;;;;;;;;;;5011506;28;20022;-76
2023/03/21 03:05:25;;;;;;;12.77;6.53;;;;;;;;;;5030797;28;20389;-76
2023/03/21 03:08:01;;;;;;;18.50;6.67;;;;;;;;;;5032920;28;20025;-76
2023/03/21 03:10:29;;;;;;;20.00;6.27;;;;;;;;;;5034753;28;20025;-75
2023/03/21 03:13:01;;;;;;;18.13;6.90;;;;;;;;;;5035549;28;20021;-75
2023/03/21 03:15:30;;;;;;;14.13;6.70;;;;;;;;;;5026062;28;20044;-75
2023/03/21 03:18:10;;;;;;;14.63;6.33;;;;;;;;;;5024367;28;20018;-75
2023/03/21 03:20:49;;;;;;;12.03;6.20;;;;;;;;;;5025321;28;20017;-76
2023/03/21 03:23:33;;;;;;;16.77;5.83;;;;;;;;;;5032387;28;20030;-75
2023/03/21 03:26:04;;;;;;;10.93;5.83;;;;;;;;;;5026357;28;20052;-75
2023/03/21 03:28:32;;;;;;;16.93;7.60;;;;;;;;;;5022238;28;20025;-75
2023/03/21 03:30:59;;;;;;;12.77;5.70;;;;;;;;;;5030893;28;20354;-75
2023/03/21 03:33:29;;;;;;;15.60;6.20;;;;;;;;;;5015674;28;20041;-75
2023/03/21 03:35:56;;;;;;;24.73;7.43;;;;;;;;;;5020753;28;20037;-75
2023/03/21 03:38:23;;;;;;;15.80;6.10;;;;;;;;;;5013409;28;20029;-75
2023/03/21 03:40:55;;;;;;;12.33;5.67;;;;;;;;;;5032020;28;20028;-75
2023/03/21 03:43:27;;;;;;;23.90;7.43;;;;;;;;;;5027219;28;20025;-75
2023/03/21 03:45:56;;;;;;;18.13;6.72;;;;;;;;;;5031469;28;20037;-75
2023/03/21 03:48:24;;;;;;;15.53;6.50;;;;;;;;;;5034520;28;20444;-75
2023/03/21 03:50:53;;;;;;;16.90;6.43;;;;;;;;;;5033510;28;20032;-75
2023/03/21 03:53:21;;;;;;;17.30;6.07;;;;;;;;;;5029906;28;20036;-75
2023/03/21 03:55:49;;;;;;;18.53;6.33;;;;;;;;;;5008977;28;20065;-75
2023/03/21 03:58:19;;;;;;;19.10;6.60;;;;;;;;;;5034677;28;20100;-75
2023/03/21 04:00:46;;;;;;;11.27;5.77;;;;;;;;;;5035253;28;20349;-75
2023/03/21 04:03:12;;;;;;;17.13;6.50;;;;;;;;;;5019766;28;20079;-75
2023/03/21 04:05:38;;;;;;;13.60;5.60;;;;;;;;;;5047832;28;20079;-75
2023/03/21 04:08:05;;;;;;;16.53;5.40;;;;;;;;;;5037767;28;20376;-75
2023/03/21 04:10:31;;;;;;;14.63;5.80;;;;;;;;;;5021748;28;20021;-76
2023/03/21 04:12:57;;;;;;;15.70;5.83;;;;;;;;;;5022380;28;20033;-75
2023/03/21 04:15:23;;;;;;;14.20;5.27;;;;;;;;;;5039665;28;20037;-76
2023/03/21 04:17:49;;;;;;;9.87;4.40;;;;;;;;;;5039216;28;20400;-76
2023/03/21 04:20:15;;;;;;;10.90;4.60;;;;;;;;;;5035860;28;20051;-76
2023/03/21 04:22:41;;;;;;;14.57;4.50;;;;;;;;;;5033746;28;20049;-76
2023/03/21 04:25:08;;;;;;;12.37;5.33;;;;;;;;;;5015342;28;20021;-75
2023/03/21 04:27:36;;;;;;;17.40;4.77;;;;;;;;;;5028755;28;20030;-76
2023/03/21 04:30:04;;;;;;;12.87;5.23;;;;;;;;;;5023253;28;20045;-76
2023/03/21 04:32:32;;;;;;;10.40;4.67;;;;;;;;;;5021830;28;20022;-76
2023/03/21 04:34:59;;;;;;;14.47;4.63;;;;;;;;;;5037618;28;20113;-75
2023/03/21 04:37:26;;;;;;;17.13;5.17;;;;;;;;;;5039235;28;20033;-76
2023/03/21 04:39:52;;;;;;;15.97;5.00;;;;;;;;;;5022461;28;20079;-76
2023/03/21 04:42:19;;;;;;;12.27;4.57;;;;;;;;;;5017749;28;20176;-76
2023/03/21 04:44:48;;;;;;;11.27;4.70;;;;;;;;;;5020232;28;20025;-75
2023/03/21 04:47:14;;;;;;;13.43;4.73;;;;;;;;;;5008182;28;20066;-76
2023/03/21 04:49:41;;;;;;;14.53;5.53;;;;;;;;;;5039207;28;20040;-75
2023/03/21 04:52:07;;;;;;;12.13;4.83;;;;;;;;;;5032408;28;20507;-75
2023/03/21 04:54:34;;;;;;;13.40;5.20;;;;;;;;;;5025482;28;20079;-75
2023/03/21 04:57:00;;;;;;;15.97;5.27;;;;;;;;;;5019342;28;20386;-76
2023/03/21 04:59:26;;;;;;;14.83;5.20;;;;;;;;;;5035419;28;20026;-75
2023/03/21 05:01:52;;;;;;;15.10;5.07;;;;;;;;;;5037216;28;20029;-75
2023/03/21 05:04:19;;;;;;;11.53;4.97;;;;;;;;;;5018777;28;20489;-75
2023/03/21 05:06:45;;;;;;;11.63;4.87;;;;;;;;;;5027432;28;20037;-75
2023/03/21 05:09:14;;;;;;;14.43;5.83;;;;;;;;;;5035421;28;20030;-75
2023/03/21 05:11:40;;;;;;;16.73;5.40;;;;;;;;;;5024356;28;20111;-75
2023/03/21 05:14:12;;;;;;;14.73;5.27;;;;;;;;;;5016239;28;20030;-75
2023/03/21 05:16:47;;;;;;;12.73;5.35;;;;;;;;;;5018543;28;20502;-75
2023/03/21 05:19:13;;;;;;;13.83;5.07;;;;;;;;;;5019264;28;20030;-75
2023/03/21 05:21:40;;;;;;;12.67;5.00;;;;;;;;;;5036296;28;20025;-75
2023/03/21 05:24:11;;;;;;;12.90;4.67;;;;;;;;;;5034479;28;20040;-75
2023/03/21 05:26:37;;;;;;;16.33;5.47;;;;;;;;;;5027789;28;20025;-76
2023/03/21 05:29:03;;;;;;;17.73;5.83;;;;;;;;;;5030059;28;20130;-75
2023/03/21 05:31:29;;;;;;;15.93;5.77;;;;;;;;;;5032365;28;20029;-75
2023/03/21 05:33:55;;;;;;;14.13;5.27;;;;;;;;;;5019052;28;20323;-75
2023/03/21 05:36:21;;;;;;;13.67;4.87;;;;;;;;;;5034562;28;20029;-75
2023/03/21 05:38:47;;;;;;;14.03;5.70;;;;;;;;;;5024102;28;20017;-76
2023/03/21 05:41:16;;;;;;;14.00;5.10;;;;;;;;;;5017797;28;20068;-75
2023/03/21 05:43:45;;;;;;;17.27;5.80;;;;;;;;;;5018360;28;20017;-75
2023/03/21 05:46:11;;;;;;;9.80;5.93;;;;;;;;;;5022598;28;20021;-75
2023/03/21 05:48:37;;;;;;;17.20;6.23;;;;;;;;;;5008978;28;20466;-75
2023/03/21 05:51:03;;;;;;;13.83;5.10;;;;;;;;;;5035393;28;20026;-74
2023/03/21 05:53:29;;;;;;;17.43;5.93;;;;;;;;;;5024264;28;20116;-75
2023/03/21 05:55:55;;;;;;;15.07;6.50;;;;;;;;;;5032547;28;20037;-76
2023/03/21 05:58:21;;;;;;;17.90;6.40;;;;;;;;;;5033982;28;20021;-76
2023/03/21 06:00:52;;;;;;;14.43;5.53;;;;;;;;;;5028219;28;20018;-75
2023/03/21 06:03:18;;;;;;;16.53;5.87;;;;;;;;;;5034235;28;20434;-75
2023/03/21 06:05:46;;;;;;;17.47;5.93;;;;;;;;;;5021111;28;20022;-75
2023/03/21 06:08:12;;;;;;;13.30;6.83;;;;;;;;;;5030882;28;20063;-76
2023/03/21 06:10:38;;;;;;;15.43;5.93;;;;;;;;;;5027451;28;20045;-76
2023/03/21 06:13:04;;;;;;;19.97;7.30;;;;;;;;;;5023941;28;20430;-76
2023/03/21 06:15:30;;;;;;;17.63;5.57;;;;;;;;;;5027044;28;20018;-75
2023/03/21 06:18:01;;;;;;;14.17;7.53;;;;;;;;;;5024419;28;20415;-76
2023/03/21 06:20:27;;;;;;;19.83;6.57;;;;;;;;;;5017439;28;20570;-75
2023/03/21 06:22:53;;;;;;;19.73;8.00;;;;;;;;;;5016008;28;20035;-76
2023/03/21 06:25:20;;;;;;;16.20;6.60;;;;;;;;;;5029673;28;20036;-76
2023/03/21 06:27:46;;;;;;;16.83;6.17;;;;;;;;;;5015480;28;20033;-75
2023/03/21 06:30:12;;;;;;;17.90;6.37;;;;;;;;;;5021861;28;20025;-76
2023/03/21 06:32:38;;;;;;;19.83;7.07;;;;;;;;;;5033457;28;20033;-75
2023/03/21 06:35:04;;;;;;;17.50;6.23;;;;;;;;;;5011624;28;20021;-76
2023/03/21 06:37:30;;;;;;;17.37;6.43;;;;;;;;;;5014663;28;20010;-75
2023/03/21 06:39:58;;;;;;;13.57;5.83;;;;;;;;;;5026045;28;20032;-74
2023/03/21 06:42:24;;;;;;;16.47;6.93;;;;;;;;;;5027034;28;20037;-75
2023/03/21 06:44:50;;;;;;;17.83;7.10;;;;;;;;;;5015282;28;20087;-75
2023/03/21 06:47:16;;;;;;;18.10;7.30;;;;;;;;;;5033309;28;20149;-75
2023/03/21 06:49:45;;;;;;;16.90;5.87;;;;;;;;;;5015864;28;20033;-75
2023/03/21 06:52:11;;;;;;;16.23;7.13;;;;;;;;;;5010164;28;20111;-75
2023/03/21 06:54:37;;;;;;;24.03;7.73;;;;;;;;;;5025416;28;20080;-74
2023/03/21 06:57:03;;;;;;;15.17;5.83;;;;;;;;;;5009043;28;20525;-75
2023/03/21 06:59:29;;;;;;;17.67;6.17;;;;;;;;;;5009710;28;20055;-75
2023/03/21 07:01:55;;;;;;;18.93;6.60;;;;;;;;;;5022554;28;20029;-75
2023/03/21 07:04:21;;;;;;;17.83;6.60;;;;;;;;;;5010803;28;20044;-75
2023/03/21 07:06:47;;;;;;;17.40;6.10;;;;;;;;;;5023200;28;20198;-75
2023/03/21 07:09:13;;;;;;;16.27;6.10;;;;;;;;;;5023188;28;20029;-75
2023/03/21 07:11:40;;;;;;;21.83;7.43;;;;;;;;;;5010606;28;20033;-76
2023/03/21 07:14:08;;;;;;;19.87;7.33;;;;;;;;;;5010062;28;20029;-76
2023/03/21 07:16:34;;;;;;;20.17;7.47;;;;;;;;;;5021871;28;20032;-74
2023/03/21 07:19:00;;;;;;;19.83;7.63;;;;;;;;;;5009649;28;20442;-76
2023/03/21 07:21:26;;;;;;;17.57;7.73;;;;;;;;;;5010720;28;20492;-75
2023/03/21 07:23:52;;;;;;;19.00;7.70;;;;;;;;;;5012723;28;20025;-76
2023/03/21 07:26:18;;;;;;;20.80;8.07;;;;;;;;;;5010302;28;20121;-76
2023/03/21 07:28:44;;;;;;;21.83;8.17;;;;;;;;;;5013302;28;20037;-76
2023/03/21 07:31:18;;;;;;;25.50;8.70;;;;;;;;;;5023694;28;20037;-74
2023/03/21 07:33:45;;;;;;;19.20;7.83;;;;;;;;;;5004936;28;20863;-75
2023/03/21 07:36:15;;;;;;;16.80;7.43;;;;;;;;;;5008836;28;20026;-74
2023/03/21 07:38:42;;;;;;;20.90;8.33;;;;;;;;;;5006219;28;20025;-75
2023/03/21 07:41:08;;;;;;;20.23;8.00;;;;;;;;;;5022368;28;20029;-74
2023/03/21 07:43:34;;;;;;;18.07;8.33;;;;;;;;;;5021933;28;20034;-74
2023/03/21 07:46:00;;;;;;;22.50;9.23;;;;;;;;;;5009623;28;21552;-76
2023/03/21 07:48:29;;;;;;;19.53;10.30;;;;;;;;;;5008387;28;20029;-74
2023/03/21 07:50:56;;;;;;;19.70;9.30;;;;;;;;;;5021066;28;20040;-75
2023/03/21 07:53:22;;;;;;;24.37;11.07;;;;;;;;;;5024200;28;20033;-76
2023/03/21 07:55:51;;;;;;;25.63;10.53;;;;;;;;;;5011038;28;20036;-76
2023/03/21 07:58:18;;;;;;;22.87;9.60;;;;;;;;;;5012490;28;20021;-76
2023/03/21 08:00:44;;;;;;;21.77;10.40;;;;;;;;;;5010724;28;20044;-76
2023/03/21 08:03:10;;;;;;;25.87;10.27;;;;;;;;;;5025993;28;20033;-78
2023/03/21 08:05:36;;;;;;;26.80;9.73;;;;;;;;;;5011074;28;20025;-75
2023/03/21 08:08:05;;;;;;;21.53;9.43;;;;;;;;;;5024754;28;20598;-75
2023/03/21 08:10:31;;;;;;;26.13;10.00;;;;;;;;;;5021500;28;20038;-76
2023/03/21 08:13:00;;;;;;;22.43;8.83;;;;;;;;;;5022481;28;20099;-75
2023/03/21 08:15:26;;;;;;;27.93;8.87;;;;;;;;;;5023102;28;20034;-76
2023/03/21 08:17:52;;;;;;;21.57;8.90;;;;;;;;;;5004932;28;20336;-76
2023/03/21 08:20:20;;;;;;;19.23;8.47;;;;;;;;;;5009991;28;20064;-75
2023/03/21 08:22:46;;;;;;;21.10;8.30;;;;;;;;;;5009758;28;20065;-76
2023/03/21 08:25:12;;;;;;;18.27;8.70;;;;;;;;;;5009463;28;20440;-75
2023/03/21 08:27:39;;;;;;;19.50;8.57;;;;;;;;;;5020673;28;20044;-76
2023/03/21 08:30:05;;;;;;;20.30;8.33;;;;;;;;;;5023850;28;20099;-76
2023/03/21 08:32:32;;;;;;;21.67;9.10;;;;;;;;;;5013101;28;20095;-76
2023/03/21 08:34:59;;;;;;;22.17;9.03;;;;;;;;;;5010697;28;20029;-75
2023/03/21 08:37:25;;;;;;;20.20;9.60;;;;;;;;;;5023391;28;20026;-77
2023/03/21 08:39:54;;;;;;;20.53;10.43;;;;;;;;;;5024110;28;20442;-75
2023/03/21 08:42:20;;;;;;;18.47;8.57;;;;;;;;;;5012735;28;20090;-75
2023/03/21 08:44:47;;;;;;;24.03;8.93;;;;;;;;;;5014807;28;20473;-76
2023/03/21 08:47:13;;;;;;;17.30;7.40;;;;;;;;;;5028485;28;20116;-76
2023/03/21 08:49:40;;;;;;;22.10;8.17;;;;;;;;;;5029277;28;20044;-75
2023/03/21 08:52:06;;;;;;;18.20;8.20;;;;;;;;;;5029330;28;20116;-76
2023/03/21 08:54:32;;;;;;;15.80;6.83;;;;;;;;;;5029556;28;20109;-76
2023/03/21 08:56:58;;;;;;;19.33;7.63;;;;;;;;;;5018558;28;20460;-78
2023/03/21 08:59:24;;;;;;;18.00;7.10;;;;;;;;;;5018962;28;20030;-76
2023/03/21 09:01:50;;;;;;;15.90;7.70;;;;;;;;;;5031514;28;20034;-77
2023/03/21 09:04:19;;;;;;;14.57;6.90;;;;;;;;;;5017466;28;20132;-75
2023/03/21 09:06:48;;;;;;;13.57;7.37;;;;;;;;;;5023380;28;20033;-77
2023/03/21 09:09:15;;;;;;;18.03;7.70;;;;;;;;;;5021863;28;20033;-77
2023/03/21 09:11:41;;;;;;;15.13;7.17;;;;;;;;;;5020300;28;20029;-77
2023/03/21 09:14:08;;;;;;;20.33;7.87;;;;;;;;;;5043499;28;20109;-77
2023/03/21 09:16:36;;;;;;;21.30;7.60;;;;;;;;;;5036274;28;20102;-78
2023/03/21 09:19:03;;;;;;;15.20;7.07;;;;;;;;;;5007702;28;20021;-76
2023/03/21 09:21:29;;;;;;;21.27;6.90;;;;;;;;;;5022372;28;20029;-77
2023/03/21 09:23:58;;;;;;;21.27;6.70;;;;;;;;;;5026520;28;20047;-77
2023/03/21 09:26:26;;;;;;;15.10;6.50;;;;;;;;;;5018881;28;20052;-77
2023/03/21 09:28:52;;;;;;;17.77;8.37;;;;;;;;;;5033148;28;20377;-77
2023/03/21 09:31:21;;;;;;;18.40;6.53;;;;;;;;;;5019794;28;20063;-78
2023/03/21 09:33:52;;;;;;;17.40;6.67;;;;;;;;;;5038273;28;20025;-76
2023/03/21 09:36:20;;;;;;;16.13;6.70;;;;;;;;;;5022784;28;20501;-76
2023/03/21 09:38:49;;;;;;;11.77;5.93;;;;;;;;;;5032776;28;20117;-77
2023/03/21 09:41:27;;;;;;;13.60;6.17;;;;;;;;;;5026737;28;20029;-78
2023/03/21 09:44:07;;;;;;;14.23;7.07;;;;;;;;;;5005733;28;20044;-77
2023/03/21 09:46:51;;;;;;;20.40;7.57;;;;;;;;;;5025432;28;20021;-76
2023/03/21 09:49:24;;;;;;;14.00;7.47;;;;;;;;;;5017101;28;20044;-76
2023/03/21 09:51:51;;;;;;;19.40;7.97;;;;;;;;;;5020286;28;20034;-77
2023/03/21 09:54:23;;;;;;;15.37;7.27;;;;;;;;;;5025696;28;20076;-76
2023/03/21 09:56:51;;;;;;;13.55;7.38;;;;;;;;;;5022018;28;20026;-77
2023/03/21 09:59:40;;;;;;;17.17;6.77;;;;;;;;;;5029108;28;20014;-76
2023/03/21 10:02:31;;;;;;;13.93;7.57;;;;;;;;;;5016242;28;20116;-79
2023/03/21 10:04:59;;;;;;;18.60;7.73;;;;;;;;;;5023255;28;20118;-78
2023/03/21 10:07:27;;;;;;;15.23;7.73;;;;;;;;;;5024871;28;20524;-77
2023/03/21 10:09:54;;;;;;;13.90;7.10;;;;;;;;;;5019274;28;20026;-77
2023/03/21 10:12:21;;;;;;;19.17;8.67;;;;;;;;;;5035715;28;20027;-77
2023/03/21 10:14:50;;;;;;;21.83;9.70;;;;;;;;;;5012893;28;20040;-78
2023/03/21 10:17:39;;;;;;;16.07;8.27;;;;;;;;;;5024673;28;20450;-77
2023/03/21 10:20:12;;;;;;;13.63;6.70;;;;;;;;;;5027530;28;20029;-76
2023/03/21 10:22:38;;;;;;;13.85;5.88;;;;;;;;;;5031158;28;20044;-76
2023/03/21 10:25:05;;;;;;;21.67;6.37;;;;;;;;;;5026206;28;20064;-75
2023/03/21 10:27:31;;;;;;;12.17;5.77;;;;;;;;;;5033599;28;20034;-76
2023/03/21 10:29:59;;;;;;;14.07;6.73;;;;;;;;;;5030019;28;20040;-75
2023/03/21 10:32:28;;;;;;;14.37;5.60;;;;;;;;;;5015364;28;20025;-76
2023/03/21 10:34:55;;;;;;;16.17;6.50;;;;;;;;;;5018475;28;20079;-76
2023/03/21 10:37:22;;;;;;;14.03;6.50;;;;;;;;;;5033611;28;20021;-76
2023/03/21 10:39:54;;;;;;;15.47;6.03;;;;;;;;;;5031441;28;20033;-76
2023/03/21 10:42:23;;;;;;;15.43;7.13;;;;;;;;;;5031676;28;20083;-76
2023/03/21 10:44:50;;;;;;;16.13;8.37;;;;;;;;;;5027535;28;20026;-77
2023/03/21 10:47:21;;;;;;;13.90;6.23;;;;;;;;;;5016130;28;20029;-77
2023/03/21 10:49:47;;;;;;;14.73;7.07;;;;;;;;;;5031915;28;20108;-76
2023/03/21 10:52:16;;;;;;;10.63;5.67;;;;;;;;;;5017281;28;20095;-77
2023/03/21 10:54:42;;;;;;;11.97;5.13;;;;;;;;;;5035436;28;20103;-77
2023/03/21 10:57:10;;;;;;;9.50;5.40;;;;;;;;;;5022066;28;20029;-78
2023/03/21 10:59:57;;;;;;;10.07;5.00;;;;;;;;;;5021441;28;20449;-77
2023/03/21 11:02:29;;;;;;;10.30;5.80;;;;;;;;;;5032505;28;20195;-77
2023/03/21 11:04:57;;;;;;;12.40;5.50;;;;;;;;;;5025285;28;20111;-77
2023/03/21 11:07:29;;;;;;;12.03;5.77;;;;;;;;;;5030619;28;20021;-78
2023/03/21 11:09:57;;;;;;;16.93;5.90;;;;;;;;;;5033687;28;20029;-76
2023/03/21 11:12:38;;;;;;;15.27;5.87;;;;;;;;;;5035147;28;20057;-76
2023/03/21 11:15:23;;;;;;;10.80;4.50;;;;;;;;;;5015350;28;20459;-77
2023/03/21 11:17:49;;;;;;;10.70;5.87;;;;;;;;;;5021682;28;20053;-77
2023/03/21 11:20:17;;;;;;;14.77;5.63;;;;;;;;;;5028467;28;20496;-78
2023/03/21 11:22:44;;;;;;;9.97;5.77;;;;;;;;;;5031464;28;20514;-77
2023/03/21 11:25:19;;;;;;;14.67;6.50;;;;;;;;;;5022167;28;20029;-77
2023/03/21 11:27:49;;;;;;;10.30;5.87;;;;;;;;;;5023742;28;20450;-77
2023/03/21 11:30:23;;;;;;;17.37;6.37;;;;;;;;;;5021815;28;20037;-77
2023/03/21 11:33:02;;;;;;;14.67;5.97;;;;;;;;;;5035461;28;20407;-77
2023/03/21 11:35:32;;;;;;;11.33;7.07;;;;;;;;;;5020751;28;20112;-77
2023/03/21 11:37:59;;;;;;;16.77;7.07;;;;;;;;;;5030409;28;20182;-77
2023/03/21 11:40:25;;;;;;;16.50;6.83;;;;;;;;;;5014958;28;20080;-76
2023/03/21 11:42:55;;;;;;;17.00;7.07;;;;;;;;;;5010749;28;20758;-76
2023/03/21 11:45:26;;;;;;;12.43;5.83;;;;;;;;;;5026775;28;20220;-75
2023/03/21 11:47:53;;;;;;;12.97;6.23;;;;;;;;;;5015800;28;20434;-77
2023/03/21 11:50:24;;;;;;;16.87;7.73;;;;;;;;;;5030818;28;20025;-75
2023/03/21 11:52:53;;;;;;;11.33;6.57;;;;;;;;;;5022258;28;20440;-77
2023/03/21 11:55:35;;;;;;;16.13;7.30;;;;;;;;;;5026672;28;20040;-76
2023/03/21 11:58:13;;;;;;;13.27;5.67;;;;;;;;;;5026670;28;20093;-76
2023/03/21 12:00:58;;;;;;;11.17;6.50;;;;;;;;;;5021294;28;20018;-76
2023/03/21 12:03:24;;;;;;;10.97;5.37;;;;;;;;;;5030499;28;20057;-76
2023/03/21 12:05:55;;;;;;;18.33;6.73;;;;;;;;;;5004823;28;20405;-76
2023/03/21 12:08:24;;;;;;;14.53;7.03;;;;;;;;;;5024432;28;20374;-75
2023/03/21 12:11:09;;;;;;;14.67;5.70;;;;;;;;;;5025319;28;20461;-75
2023/03/21 12:13:50;;;;;;;12.37;6.27;;;;;;;;;;5025117;28;20025;-75
2023/03/21 12:16:22;;;;;;;13.30;6.10;;;;;;;;;;5034269;28;20104;-76
2023/03/21 12:19:03;;;;;;;15.95;6.88;;;;;;;;;;5031835;28;20097;-76
2023/03/21 12:21:42;;;;;;;10.30;5.77;;;;;;;;;;5009214;28;20017;-76
2023/03/21 12:24:17;;;;;;;11.20;6.07;;;;;;;;;;5011904;28;20022;-75
2023/03/21 12:26:46;;;;;;;11.03;6.50;;;;;;;;;;5035070;28;20072;-76
2023/03/21 12:29:24;;;;;;;17.63;6.97;;;;;;;;;;5018554;28;20448;-77
2023/03/21 12:32:04;;;;;;;13.80;6.13;;;;;;;;;;5036122;28;20116;-76
2023/03/21 12:34:49;;;;;;;14.73;6.70;;;;;;;;;;5032640;28;20025;-76
2023/03/21 12:37:20;;;;;;;11.20;4.87;;;;;;;;;;5033999;28;20120;-76
2023/03/21 12:39:50;;;;;;;12.73;5.70;;;;;;;;;;5031944;28;20345;-77
2023/03/21 12:42:30;;;;;;;14.67;5.37;;;;;;;;;;5029639;28;20033;-75
2023/03/21 12:45:08;;;;;;;11.13;5.37;;;;;;;;;;5026796;28;20323;-75
2023/03/21 12:47:35;;;;;;;13.17;5.67;;;;;;;;;;5029928;28;20033;-75
2023/03/21 12:50:20;;;;;;;16.63;7.67;;;;;;;;;;5019219;28;20029;-75
2023/03/21 12:52:49;;;;;;;12.10;6.07;;;;;;;;;;5046070;23;20061;-75
2023/03/21 12:55:18;;;;;;;11.27;5.27;;;;;;;;;;5007623;28;20057;-76
2023/03/21 12:58:06;;;;;;;11.87;5.77;;;;;;;;;;5014439;28;20113;-75
2023/03/21 13:00:37;;;;;;;8.60;4.73;;;;;;;;;;5015656;28;20030;-75
2023/03/21 13:03:11;;;;;;;17.47;5.97;;;;;;;;;;4992685;28;20026;-75
2023/03/21 13:05:44;;;;;;;13.20;5.70;;;;;;;;;;5009252;28;20026;-75
2023/03/21 13:08:10;;;;;;;10.33;4.47;;;;;;;;;;4989313;28;20034;-75
2023/03/21 13:10:36;;;;;;;10.53;4.73;;;;;;;;;;5014001;28;20101;-76
2023/03/21 13:13:12;;;;;;;9.13;4.30;;;;;;;;;;5007282;28;20026;-76
2023/03/21 13:15:43;;;;;;;13.07;4.37;;;;;;;;;;4995395;28;20085;-75
2023/03/21 13:18:12;;;;;;;9.23;4.85;;;;;;;;;;5009059;28;20030;-75
2023/03/21 13:20:38;;;;;;;16.97;4.57;;;;;;;;;;4997023;28;20050;-75
2023/03/21 13:23:05;;;;;;;8.32;4.38;;;;;;;;;;4999635;28;20026;-76
2023/03/21 13:25:34;;;;;;;8.18;4.47;;;;;;;;;;5004676;28;20025;-77
2023/03/21 13:28:02;;;;;;;9.27;4.77;;;;;;;;;;5011390;28;20025;-75
2023/03/21 13:30:29;;;;;;;8.55;4.88;;;;;;;;;;5001025;28;20481;-76
2023/03/21 13:33:16;;;;;;;9.00;4.47;;;;;;;;;;5007870;28;20056;-76
2023/03/21 13:35:45;;;;;;;13.10;7.47;;;;;;;;;;4988689;28;20025;-75
2023/03/21 13:38:17;;;;;;;16.40;8.43;;;;;;;;;;5010581;28;20033;-76
2023/03/21 13:40:57;;;;;;;10.52;5.45;;;;;;;;;;5015302;28;20026;-75
2023/03/21 13:43:55;;;;;;;8.33;4.27;;;;;;;;;;5018896;28;20025;-76
2023/03/21 13:46:24;;;;;;;10.13;4.03;;;;;;;;;;4967546;28;20117;-75
2023/03/21 13:48:59;;;;;;;7.07;4.20;;;;;;;;;;4998505;28;20022;-74
2023/03/21 13:51:41;;;;;;;11.73;4.07;;;;;;;;;;4998960;28;20040;-76
2023/03/21 13:54:07;;;;;;;;;;;;;;;;;;4999444;28;20348;-75
2023/03/21 13:56:45;;;;;;;10.40;4.45;;;;;;;;;;4996603;28;19905;-75
2023/03/21 13:59:37;;;;;;;9.00;4.33;;;;;;;;;;5001230;28;20030;-76
2023/03/21 14:02:15;;;;;;;8.07;4.30;;;;;;;;;;4987926;28;20041;-76
2023/03/21 14:04:42;;;;;;;10.70;4.13;;;;;;;;;;5005998;28;20044;-75
2023/03/21 14:07:14;;;;;;;7.27;3.80;;;;;;;;;;5001157;28;20026;-75
2023/03/21 14:09:42;;;;;;;7.93;3.90;;;;;;;;;;5006053;28;20065;-75
2023/03/21 14:12:11;;;;;;;8.68;4.15;;;;;;;;;;4999985;28;20022;-75
2023/03/21 14:14:42;;;;;;;8.57;4.00;;;;;;;;;;4997311;28;20689;-75
2023/03/21 14:17:11;;;;;;;8.25;4.22;;;;;;;;;;5020520;28;20040;-75
2023/03/21 14:19:37;;;;;;;9.80;4.13;;;;;;;;;;5011937;28;20337;-75
2023/03/21 14:22:09;;;;;;;10.23;4.50;;;;;;;;;;4999749;28;20118;-74
2023/03/21 14:24:35;;;;;;;9.50;4.33;;;;;;;;;;4976901;28;20029;-75
2023/03/21 14:27:03;;;;;;;8.68;4.32;;;;;;;;;;5010833;28;20026;-75
2023/03/21 14:29:31;;;;;;;10.60;5.23;;;;;;;;;;5004200;28;20164;-76
2023/03/21 14:32:01;;;;;;;14.13;4.90;;;;;;;;;;4999102;28;20026;-75
2023/03/21 14:34:31;;;;;;;10.73;5.00;;;;;;;;;;4997885;28;20121;-75
2023/03/21 14:36:57;;;;;;;8.50;4.40;;;;;;;;;;5012508;28;20169;-76
2023/03/21 14:39:24;;;;;;;9.60;4.50;;;;;;;;;;4998480;28;20124;-76
2023/03/21 14:41:51;;;;;;;9.18;4.57;;;;;;;;;;4999841;28;20034;-76
2023/03/21 14:44:26;;;;;;;9.38;5.00;;;;;;;;;;5007047;28;20072;-75
2023/03/21 14:46:53;;;;;;;9.45;4.28;;;;;;;;;;5015328;28;20418;-75